Terminal Aerodrome Forecast
Issued by NWS

Home | Current Version | Previous Version | Text Only | Print | Product List | Glossary On
Versions: 1 2 3 4 5 6 7 8 9 10 11 12 13
000
FTUS46 KLOX 161700
TAFWJF
TAF
KWJF 161738Z 1618/1718 VRB04KT P6SM SKC
     FM162100 26015G25KT P6SM SKC
     FM170300 26015KT P6SM SKC
     FM170700 25008KT P6SM SKC=

USA.gov is the U.S. government's official web portal to all federal, state and local government web resources and services.